Time;durP1;ratioP1;P1;durP2;ratioP2;P2;SDS_P1;SDS_P2;PMS_P1;PMS_P2;Temp;Humidity;BMP_temperature;BMP_pressure;BME280_temperature;BME280_humidity;BME280_pressure;Samples;Min_cycle;Max_cycle;Signal;HPM_P1;HPM_P2
2023/06/25 00:00:45;;;;;;;;;;;;;;;-144.99;97.27;52154.59;5075786;28;19956;-74
2023/06/25 00:03:12;;;;;;;;;;;;;;;-144.99;97.32;52156.63;5069850;28;20000;-74
2023/06/25 00:05:39;;;;;;;;;;;;;;;-144.99;97.29;52183.13;5070335;28;19947;-74
2023/06/25 00:08:07;;;;;;;;;;;;;;;-144.99;97.67;52170.91;5078450;28;19964;-74
2023/06/25 00:10:34;;;;;;;;;;;;;;;-144.99;98.05;52177.00;5074566;28;19962;-74
2023/06/25 00:13:00;;;;;;;;;;;;;;;-144.99;98.46;52219.81;5069663;28;19938;-75
2023/06/25 00:15:28;;;;;;;;;;;;;;;-144.99;98.49;52183.13;5070388;28;19954;-74
2023/06/25 00:17:54;;;;;;;;;;;;;;;-144.99;98.73;52174.97;5074649;28;19947;-74
2023/06/25 00:20:22;;;;;;;;;;;;;;;-144.99;98.86;52187.19;5072906;28;20452;-74
2023/06/25 00:22:48;;;;;;;;;;;;;;;-144.99;99.23;52201.47;5079514;28;20066;-74
2023/06/25 00:25:17;;;;;;;;;;;;;;;-144.99;99.28;52203.50;5067535;28;19942;-74
2023/06/25 00:27:47;;;;;;;;;;;;;;;-144.99;99.66;52191.28;5074443;28;20100;-74
2023/06/25 00:30:14;;;;;;;;;;;;;;;-144.99;99.10;52162.75;5073150;28;19954;-72
2023/06/25 00:32:41;;;;;;;;;;;;;;;-144.99;100.00;52207.59;5078082;28;19942;-74
2023/06/25 00:35:08;;;;;;;;;;;;;;;-144.99;100.00;52162.75;5073219;28;19937;-74
2023/06/25 00:37:36;;;;;;;;;;;;;;;-144.99;100.00;52240.19;5072942;28;19958;-74
2023/06/25 00:40:03;;;;;;;;;;;;;;;-144.99;100.00;52195.34;5076093;28;19971;-74
2023/06/25 00:42:40;;;;;;;;;;;;;;;-144.99;100.00;52207.59;5072854;28;20428;-74
2023/06/25 00:45:08;;;;;;;;;;;;;;;-144.99;100.00;52166.81;5069775;28;19994;-74
2023/06/25 00:47:35;;;;;;;;;;;;;;;-144.99;100.00;52183.13;5077640;28;20392;-74
2023/06/25 00:50:02;;;;;;;;;;;;;;;-144.99;100.00;52199.44;5070892;28;19954;-74
2023/06/25 00:52:30;;;;;;;;;;;;;;;-144.99;100.00;52203.50;5072209;28;20100;-74
2023/06/25 00:54:56;;;;;;;;;;;;;;;-144.99;100.00;52166.81;5073958;28;19942;-74
2023/06/25 00:57:27;;;;;;;;;;;;;;;-144.99;100.00;52199.44;5072726;28;19943;-74
2023/06/25 00:59:56;;;;;;;;;;;;;;;-144.99;100.00;52223.88;5072504;28;20051;-73
2023/06/25 01:02:26;;;;;;;;;;;;;;;-144.99;100.00;52187.19;5075327;28;19944;-72
2023/06/25 01:04:57;;;;;;;;;;;;;;;-144.99;100.00;52168.84;5069180;28;19945;-74
2023/06/25 01:07:25;;;;;;;;;;;;;;;-144.99;100.00;52177.00;5073211;28;20053;-72
2023/06/25 01:09:52;;;;;;;;;;;;;;;-144.99;100.00;52174.97;5075925;28;20393;-72
2023/06/25 01:12:19;;;;;;;;;;;;;;;-144.99;100.00;52207.59;5073140;28;19943;-72
2023/06/25 01:14:48;;;;;;;;;;;;;;;-144.99;100.00;52219.81;5069080;28;20382;-72
2023/06/25 01:17:17;;;;;;;;;;;;;;;-144.99;100.00;52215.75;5075619;28;19940;-73
2023/06/25 01:19:43;;;;;;;;;;;;;;;-144.99;100.00;52193.31;5074286;28;20097;-73
2023/06/25 01:22:10;;;;;;;;;;;;;;;-144.99;100.00;52166.81;5076496;28;19943;-73
2023/06/25 01:24:38;;;;;;;;;;;;;;;-144.99;100.00;52179.06;5073588;28;19941;-73
2023/06/25 01:27:05;;;;;;;;;;;;;;;-144.99;100.00;52179.06;5074730;28;20166;-73
2023/06/25 01:29:33;;;;;;;;;;;;;;;-144.99;100.00;52177.00;5073876;28;19956;-73
2023/06/25 01:32:00;;;;;;;;;;;;;;;-144.99;100.00;52207.59;5075997;28;19971;-73
2023/06/25 01:34:27;;;;;;;;;;;;;;;-144.99;100.00;52205.53;5071917;28;19928;-73
2023/06/25 01:36:53;;;;;;;;;;;;;;;-144.99;100.00;52195.34;5068674;28;19957;-73
2023/06/25 01:39:20;;;;;;;;;;;;;;;-144.99;100.00;52211.66;5077563;28;20445;-73
2023/06/25 01:41:49;;;;;;;;;;;;;;;-144.99;100.00;52230.00;5075923;28;19939;-72
2023/06/25 01:44:16;;;;;;;;;;;;;;;-144.99;100.00;52205.53;5060275;28;20038;-73
2023/06/25 01:46:43;;;;;;;;;;;;;;;-144.99;100.00;52162.75;5071055;28;20390;-73
2023/06/25 01:49:09;;;;;;;;;;;;;;;-144.99;100.00;52199.44;5072796;28;19966;-72
2023/06/25 01:51:37;;;;;;;;;;;;;;;-144.99;100.00;52211.66;5073535;28;19945;-73
2023/06/25 01:54:04;;;;;;;;;;;;;;;-144.99;100.00;52199.44;5077934;28;19938;-73
2023/06/25 01:56:30;;;;;;;;;;;;;;;-144.99;100.00;52205.53;5076668;28;19957;-73
2023/06/25 01:58:58;;;;;;;;;;;;;;;-144.99;100.00;52209.63;5071444;28;19948;-73
2023/06/25 02:01:26;;;;;;;;;;;;;;;-144.99;100.00;52181.09;5076935;28;19963;-73
2023/06/25 02:03:52;;;;;;;;;;;;;;;-144.99;100.00;52207.59;5066859;28;20392;-73
2023/06/25 02:06:19;;;;;;;;;;;;;;;-144.99;100.00;52183.13;5065600;28;20306;-73
2023/06/25 02:08:46;;;;;;;;;;;;;;;-144.99;100.00;52227.97;5074411;28;19962;-73
2023/06/25 02:11:12;;;;;;;;;;;;;;;-144.99;100.00;52187.19;5070627;28;19968;-73
2023/06/25 02:13:39;;;;;;;;;;;;;;;-144.99;100.00;52205.53;5068417;28;19970;-73
2023/06/25 02:16:07;;;;;;;;;;;;;;;-144.99;100.00;52189.25;5069516;28;19946;-73
2023/06/25 02:18:34;;;;;;;;;;;;;;;-144.99;100.00;52215.75;5069792;28;20329;-73
2023/06/25 02:21:00;;;;;;;;;;;;;;;-144.99;100.00;52256.50;5074718;28;19961;-73
2023/06/25 02:23:27;;;;;;;;;;;;;;;-144.99;100.00;52199.44;5072599;28;19945;-73
2023/06/25 02:25:54;;;;;;;;;;;;;;;-144.99;100.00;52260.56;5067413;28;20394;-73
2023/06/25 02:28:20;;;;;;;;;;;;;;;-144.99;100.00;52225.94;5070943;28;19952;-73
2023/06/25 02:30:47;;;;;;;;;;;;;;;-144.99;100.00;52217.78;5074451;28;19964;-73
2023/06/25 02:33:15;;;;;;;;;;;;;;;-144.99;100.00;52203.50;5075045;28;19943;-73
2023/06/25 02:35:41;;;;;;;;;;;;;;;-144.99;100.00;52191.28;5072158;28;20307;-73
2023/06/25 02:38:08;;;;;;;;;;;;;;;-144.99;100.00;52207.59;5066051;28;19938;-73
2023/06/25 02:40:35;;;;;;;;;;;;;;;-144.99;100.00;52219.81;5076017;28;19966;-73
2023/06/25 02:43:02;;;;;;;;;;;;;;;-144.99;100.00;52219.81;5066757;28;19945;-73
2023/06/25 02:45:28;;;;;;;;;;;;;;;-144.99;100.00;52191.28;5066941;28;19953;-73
2023/06/25 02:47:55;;;;;;;;;;;;;;;-144.99;100.00;52197.41;5065788;28;19955;-73
2023/06/25 02:50:23;;;;;;;;;;;;;;;-144.99;100.00;52211.66;5070048;28;20436;-73
2023/06/25 02:52:50;;;;;;;;;;;;;;;-144.99;100.00;52215.75;5074530;28;19942;-73
2023/06/25 02:55:16;;;;;;;;;;;;;;;-144.99;100.00;52199.44;5073466;28;19942;-73
2023/06/25 02:57:43;;;;;;;;;;;;;;;-144.99;100.00;52244.28;5066871;28;19941;-73
2023/06/25 03:00:10;;;;;;;;;;;;;;;-144.99;100.00;52201.47;5071319;28;20009;-73
2023/06/25 03:02:37;;;;;;;;;;;;;;;-144.99;100.00;52201.47;5069035;28;19950;-73
2023/06/25 03:05:03;;;;;;;;;;;;;;;-144.99;100.00;52191.28;5066287;28;20104;-73
2023/06/25 03:07:31;;;;;;;;;;;;;;;-144.99;100.00;52183.13;5066608;28;19946;-73
2023/06/25 03:09:58;;;;;;;;;;;;;;;-144.99;100.00;52223.88;5074824;28;19959;-73
2023/06/25 03:12:25;;;;;;;;;;;;;;;-144.99;100.00;52199.44;5070247;28;19969;-73
2023/06/25 03:14:51;;;;;;;;;;;;;;;-144.99;100.00;52164.78;5074927;28;20329;-73
2023/06/25 03:17:18;;;;;;;;;;;;;;;-144.99;100.00;52219.81;5065521;28;19949;-73
2023/06/25 03:19:45;;;;;;;;;;;;;;;-144.99;100.00;52199.44;5074949;28;19956;-73
2023/06/25 03:22:11;;;;;;;;;;;;;;;-144.99;100.00;52232.03;5066100;28;19938;-73
2023/06/25 03:24:39;;;;;;;;;;;;;;;-144.99;100.00;52191.28;5067831;28;19949;-73
2023/06/25 03:27:06;;;;;;;;;;;;;;;-144.99;100.00;52215.75;5065721;28;19937;-73
2023/06/25 03:29:33;;;;;;;;;;;;;;;-144.99;100.00;52221.84;5072130;28;19965;-72
2023/06/25 03:31:59;;;;;;;;;;;;;;;-144.99;100.00;52211.66;5066269;28;19953;-72
2023/06/25 03:34:26;;;;;;;;;;;;;;;-144.99;100.00;52211.66;5073985;28;19953;-73
2023/06/25 03:36:53;;;;;;;;;;;;;;;-144.99;99.99;52191.28;5066946;28;19936;-73
2023/06/25 03:39:19;;;;;;;;;;;;;;;-144.99;99.83;52187.19;5075976;28;19941;-73
2023/06/25 03:41:47;;;;;;;;;;;;;;;-144.99;99.49;52199.44;5069698;28;19935;-73
2023/06/25 03:44:14;;;;;;;;;;;;;;;-144.99;99.52;52187.19;5070224;28;19941;-73
2023/06/25 03:46:40;;;;;;;;;;;;;;;-144.99;99.20;52207.59;5066634;28;20393;-73
2023/06/25 03:49:07;;;;;;;;;;;;;;;-144.99;99.17;52199.44;5078096;28;19970;-73
2023/06/25 03:51:34;;;;;;;;;;;;;;;-144.99;99.53;52174.97;5071524;28;19944;-73
2023/06/25 03:54:00;;;;;;;;;;;;;;;-144.99;99.45;52189.25;5076471;28;19943;-73
2023/06/25 03:56:27;;;;;;;;;;;;;;;-144.99;100.00;52201.47;5071519;28;19944;-73
2023/06/25 03:58:55;;;;;;;;;;;;;;;-144.99;99.48;52191.28;5069907;28;19963;-73
2023/06/25 04:01:21;;;;;;;;;;;;;;;-144.99;99.18;52179.06;5074668;28;19955;-73
2023/06/25 04:03:48;;;;;;;;;;;;;;;-144.99;98.82;52213.69;5066186;28;19953;-73
2023/06/25 04:06:15;;;;;;;;;;;;;;;-144.99;98.54;52195.34;5068471;28;20395;-73
2023/06/25 04:08:41;;;;;;;;;;;;;;;-144.99;98.59;52183.13;5074700;28;19967;-73
2023/06/25 04:11:08;;;;;;;;;;;;;;;-144.99;98.49;52185.16;5065524;28;20495;-72
2023/06/25 04:13:34;;;;;;;;;;;;;;;-144.99;98.44;52203.50;5065236;28;19948;-74
2023/06/25 04:16:03;;;;;;;;;;;;;;;-144.99;98.24;52187.19;5066136;28;19951;-74
2023/06/25 04:18:29;;;;;;;;;;;;;;;-144.99;97.93;52162.75;5070782;28;19948;-72
2023/06/25 04:20:56;;;;;;;;;;;;;;;-144.99;97.58;52166.81;5072425;28;20329;-72
2023/06/25 04:23:23;;;;;;;;;;;;;;;-144.99;97.43;52128.09;5073982;28;20416;-72
2023/06/25 04:25:49;;;;;;;;;;;;;;;-144.99;97.30;52162.75;5069945;28;19950;-72
2023/06/25 04:28:16;;;;;;;;;;;;;;;-144.99;96.99;52197.41;5075105;28;19967;-73
2023/06/25 04:30:43;;;;;;;;;;;;;;;-144.99;96.69;52146.44;5069417;28;19969;-73
2023/06/25 04:33:11;;;;;;;;;;;;;;;-144.99;96.68;52187.19;5077921;28;19945;-73
2023/06/25 04:35:37;;;;;;;;;;;;;;;-144.99;96.42;52189.25;5074340;28;20362;-73
2023/06/25 04:38:04;;;;;;;;;;;;;;;-144.99;96.38;52152.56;5072636;28;19944;-73
2023/06/25 04:40:31;;;;;;;;;;;;;;;-144.99;96.28;52174.97;5078675;28;20849;-72
2023/06/25 04:42:58;;;;;;;;;;;;;;;-144.99;96.20;52158.66;5070288;28;19939;-72
2023/06/25 04:45:25;;;;;;;;;;;;;;;-144.99;96.03;52168.84;5074807;28;19952;-73
2023/06/25 04:47:52;;;;;;;;;;;;;;;-144.99;95.74;52126.06;5076372;28;19945;-73
2023/06/25 04:50:20;;;;;;;;;;;;;;;-144.99;95.49;52146.44;5076558;28;19964;-74
2023/06/25 04:52:47;;;;;;;;;;;;;;;-144.99;96.19;52179.06;5077752;28;19954;-73
2023/06/25 04:55:14;;;;;;;;;;;;;;;-144.99;95.67;52146.44;5072591;28;19957;-73
2023/06/25 04:57:40;;;;;;;;;;;;;;;-144.99;95.58;52170.91;5070155;28;19953;-73
2023/06/25 05:00:08;;;;;;;;;;;;;;;-144.99;94.89;52158.66;5077760;28;20016;-72
2023/06/25 05:02:34;;;;;;;;;;;;;;;-144.99;94.12;52134.22;5071215;28;19957;-73
2023/06/25 05:05:01;;;;;;;;;;;;;;;-144.99;93.52;52174.97;5073841;28;20310;-72
2023/06/25 05:07:29;;;;;;;;;;;;;;;-144.99;93.20;52154.59;5072405;28;20021;-74
2023/06/25 05:09:56;;;;;;;;;;;;;;;-144.99;93.51;52117.91;5074138;28;19963;-72
2023/06/25 05:12:22;;;;;;;;;;;;;;;-144.99;92.72;52115.88;5067521;28;19971;-72
2023/06/25 05:14:49;;;;;;;;;;;;;;;-144.99;92.17;52126.06;5068491;28;19990;-72
2023/06/25 05:17:15;;;;;;;;;;;;;;;-144.99;91.70;52183.13;5074588;28;20396;-73
2023/06/25 05:19:42;;;;;;;;;;;;;;;-144.99;91.43;52146.44;5073402;28;19960;-72
2023/06/25 05:22:09;;;;;;;;;;;;;;;-144.99;91.49;52162.75;5075947;28;20026;-72
2023/06/25 05:24:37;;;;;;;;;;;;;;;-144.99;91.10;52142.38;5067692;28;19951;-73
2023/06/25 05:27:04;;;;;;;;;;;;;;;-144.99;90.29;52117.91;5074307;28;19937;-73
2023/06/25 05:29:30;;;;;;;;;;;;;;;-144.99;89.55;52146.44;5072029;28;19960;-73
2023/06/25 05:31:57;;;;;;;;;;;;;;;-144.99;89.29;52146.44;5068297;28;19942;-73
2023/06/25 05:34:23;;;;;;;;;;;;;;;-144.99;89.00;52146.44;5075732;28;20357;-73
2023/06/25 05:36:50;;;;;;;;;;;;;;;-144.99;88.11;52146.44;5067466;28;19950;-73
2023/06/25 05:39:17;;;;;;;;;;;;;;;-144.99;87.95;52117.91;5077429;28;20365;-73
2023/06/25 05:41:45;;;;;;;;;;;;;;;-144.99;87.95;52138.28;5070254;28;19948;-73
2023/06/25 05:44:11;;;;;;;;;;;;;;;-144.99;87.95;52130.13;5067359;28;19935;-72
2023/06/25 05:46:38;;;;;;;;;;;;;;;-144.99;88.55;52138.28;5067461;28;19947;-73
2023/06/25 05:49:04;;;;;;;;;;;;;;;-144.99;91.07;52174.97;5074666;28;19955;-73
2023/06/25 05:51:31;;;;;;;;;;;;;;;-144.99;90.96;52191.28;5067913;28;19954;-74
2023/06/25 05:53:58;;;;;;;;;;;;;;;-144.99;91.23;52166.81;5064116;28;19924;-73
2023/06/25 05:56:24;;;;;;;;;;;;;;;-144.99;90.28;52146.44;5064699;28;19952;-73
2023/06/25 05:58:52;;;;;;;;;;;;;;;-144.99;89.73;52162.75;5066813;28;19956;-74
2023/06/25 06:01:20;;;;;;;;;;;;;;;-144.99;88.95;52150.53;5074361;28;19971;-74
2023/06/25 06:03:47;;;;;;;;;;;;;;;-144.99;88.00;52134.22;5067837;28;19950;-74
2023/06/25 06:06:14;;;;;;;;;;;;;;;-144.99;87.29;52146.44;5067266;28;19949;-73
2023/06/25 06:08:41;;;;;;;;;;;;;;;-144.99;86.77;52162.75;5073353;28;19970;-74
2023/06/25 06:11:08;;;;;;;;;;;;;;;-144.99;86.21;52138.28;5067691;28;19953;-74
2023/06/25 06:13:35;;;;;;;;;;;;;;;-144.99;86.86;52138.28;5075609;28;20396;-73
2023/06/25 06:16:03;;;;;;;;;;;;;;;-144.99;86.00;52174.97;5069795;28;19939;-74
2023/06/25 06:18:30;;;;;;;;;;;;;;;-144.99;86.00;52121.97;5069760;28;19961;-74
2023/06/25 06:20:57;;;;;;;;;;;;;;;-144.99;85.93;52138.28;5069666;28;19953;-74
2023/06/25 06:23:24;;;;;;;;;;;;;;;-144.99;85.47;52138.28;5073159;28;19943;-73
2023/06/25 06:25:51;;;;;;;;;;;;;;;-144.99;84.21;52117.91;5071644;28;20265;-74
2023/06/25 06:28:18;;;;;;;;;;;;;;;-144.99;84.11;52146.44;5071285;28;19948;-74
2023/06/25 06:30:44;;;;;;;;;;;;;;;-144.99;83.92;52183.13;5074249;28;19978;-73
2023/06/25 06:33:12;;;;;;;;;;;;;;;-144.99;83.75;52134.22;5076727;28;20201;-74
2023/06/25 06:35:39;;;;;;;;;;;;;;;-144.99;82.78;52142.38;5071128;28;20182;-74
2023/06/25 06:38:06;;;;;;;;;;;;;;;-144.99;82.78;52152.56;5070229;28;20307;-73
2023/06/25 06:40:32;;;;;;;;;;;;;;;-144.99;81.81;52121.97;5073533;28;19961;-74
2023/06/25 06:42:59;;;;;;;;;;;;;;;-144.99;81.85;52121.97;5066390;28;19934;-74
2023/06/25 06:45:26;;;;;;;;;;;;;;;-144.99;81.45;52101.59;5075967;28;19942;-74
2023/06/25 06:47:52;;;;;;;;;;;;;;;-144.99;79.84;52105.69;5073461;28;19945;-74
2023/06/25 06:50:20;;;;;;;;;;;;;;;-144.99;80.34;52146.44;5073215;28;19959;-74
2023/06/25 06:52:47;;;;;;;;;;;;;;;-144.99;79.54;52138.28;5076547;28;20043;-73
2023/06/25 06:55:14;;;;;;;;;;;;;;;-144.99;79.72;52101.59;5069280;28;19989;-73
2023/06/25 06:57:40;;;;;;;;;;;;;;;-144.99;78.53;52130.13;5069232;28;19996;-74
2023/06/25 07:00:09;;;;;;;;;;;;;;;-144.99;78.34;52121.97;5070977;28;19957;-74
2023/06/25 07:02:35;;;;;;;;;;;;;;;-144.99;76.81;52085.31;5070891;28;20033;-74
2023/06/25 07:05:03;;;;;;;;;;;;;;;-144.99;75.56;52105.69;5071872;28;19938;-74
2023/06/25 07:07:31;;;;;;;;;;;;;;;-144.99;74.82;52109.75;5069993;28;19967;-74
2023/06/25 07:09:57;;;;;;;;;;;;;;;-144.99;73.99;52109.75;5073569;28;19931;-73
2023/06/25 07:12:24;;;;;;;;;;;;;;;-144.99;74.40;52073.06;5065683;28;19932;-73
2023/06/25 07:14:50;;;;;;;;;;;;;;;-144.99;74.04;52087.34;5074234;28;19948;-73
2023/06/25 07:17:17;;;;;;;;;;;;;;;-144.99;73.80;52097.53;5071746;28;19935;-73
2023/06/25 07:19:44;;;;;;;;;;;;;;;-144.99;73.94;52081.22;5069317;28;19959;-73
2023/06/25 07:22:10;;;;;;;;;;;;;;;-144.99;73.95;52093.44;5073032;28;19946;-73
2023/06/25 07:24:38;;;;;;;;;;;;;;;-144.99;73.56;52113.84;5069974;28;19940;-73
2023/06/25 07:27:07;;;;;;;;;;;;;;;-144.99;72.90;52087.34;5084397;28;21993;-73
2023/06/25 07:29:34;;;;;;;;;;;;;;;-144.99;72.53;52089.38;5072665;28;19967;-73
2023/06/25 07:32:01;;;;;;;;;;;;;;;-144.99;72.44;52093.44;5066357;28;20134;-72
2023/06/25 07:34:27;;;;;;;;;;;;;;;-144.99;72.45;52077.16;5074024;28;19947;-71
2023/06/25 07:36:54;;;;;;;;;;;;;;;-144.99;72.38;52097.53;5067360;28;20027;-73
2023/06/25 07:39:25;;;;;;;;;;;;;;;-144.99;72.69;52093.44;5076431;28;19945;-71
2023/06/25 07:41:53;;;;;;;;;;;;;;;-144.99;71.90;52101.59;5067222;28;19975;-72
2023/06/25 07:44:20;;;;;;;;;;;;;;;-144.99;72.65;52093.44;5062805;28;19939;-73
2023/06/25 07:46:46;;;;;;;;;;;;;;;-144.99;71.84;52077.16;5066117;28;19977;-72
2023/06/25 07:49:13;;;;;;;;;;;;;;;-144.99;71.48;52087.34;5077047;28;20220;-72
2023/06/25 07:51:40;;;;;;;;;;;;;;;-144.99;71.37;52073.06;5071213;28;20004;-72
2023/06/25 07:54:06;;;;;;;;;;;;;;;-144.99;70.53;52040.47;5065325;28;19946;-72
2023/06/25 07:56:33;;;;;;;;;;;;;;;-144.99;70.49;52020.09;5068646;28;19944;-72
2023/06/25 07:59:01;;;;;;;;;;;;;;;-144.99;69.94;52048.63;5069383;28;20301;-72
2023/06/25 08:01:29;;;;;;;;;;;;;;;-144.99;70.23;52032.31;5078246;28;19967;-73
2023/06/25 08:03:55;;;;;;;;;;;;;;;-144.99;69.39;52054.72;5068000;28;19944;-73
2023/06/25 08:06:23;;;;;;;;;;;;;;;-144.99;69.21;52073.06;5071779;28;19940;-72
2023/06/25 08:08:49;;;;;;;;;;;;;;;-144.99;68.98;52060.84;5075510;28;19958;-72
2023/06/25 08:11:16;;;;;;;;;;;;;;;-144.99;69.11;52054.72;5071345;28;19959;-71
2023/06/25 08:13:42;;;;;;;;;;;;;;;-144.99;68.91;52036.38;5077735;28;19944;-71
2023/06/25 08:16:10;;;;;;;;;;;;;;;-144.99;68.81;52073.06;5072038;28;19935;-71
2023/06/25 08:18:37;;;;;;;;;;;;;;;-144.99;68.80;52052.69;5071270;28;19947;-71
2023/06/25 08:21:04;;;;;;;;;;;;;;;-144.99;68.84;52032.31;5075342;28;19965;-70
2023/06/25 08:23:30;;;;;;;;;;;;;;;-144.99;69.13;52044.53;5073511;28;19953;-70
2023/06/25 08:25:57;;;;;;;;;;;;;;;-144.99;68.24;52071.03;5077499;28;19942;-71
2023/06/25 08:28:23;;;;;;;;;;;;;;;-144.99;68.26;51999.69;5076751;28;19969;-71
2023/06/25 08:30:50;;;;;;;;;;;;;;;-144.99;68.41;52040.47;5072247;28;19962;-71
2023/06/25 08:33:18;;;;;;;;;;;;;;;-144.99;68.09;52060.84;5072543;28;19966;-71
2023/06/25 08:35:45;;;;;;;;;;;;;;;-144.99;67.83;52050.66;5074197;28;19947;-71
2023/06/25 08:38:12;;;;;;;;;;;;;;;-144.99;68.11;52040.47;5068721;28;19947;-71
2023/06/25 08:40:41;;;;;;;;;;;;;;;-144.99;67.23;52062.88;5074896;28;20059;-70
2023/06/25 08:43:08;;;;;;;;;;;;;;;-144.99;66.77;52048.63;5071746;28;19940;-71
2023/06/25 08:45:34;;;;;;;;;;;;;;;-144.99;66.70;52052.69;5072282;28;19938;-71
2023/06/25 08:48:03;;;;;;;;;;;;;;;-144.99;67.15;52028.22;5074546;28;19932;-71
2023/06/25 08:50:32;;;;;;;;;;;;;;;-144.99;66.69;52028.22;5072830;28;20166;-71
2023/06/25 08:52:58;;;;;;;;;;;;;;;-144.99;66.82;52028.22;5076268;28;19942;-71
2023/06/25 08:55:27;;;;;;;;;;;;;;;-144.99;66.98;52048.63;5067620;28;19951;-71
2023/06/25 08:57:54;;;;;;;;;;;;;;;-144.99;66.57;52003.78;5072675;28;19947;-73
2023/06/25 09:00:21;;;;;;;;;;;;;;;-144.99;66.51;52044.53;5077469;28;19971;-71
2023/06/25 09:02:47;;;;;;;;;;;;;;;-144.99;66.60;52007.84;5070538;28;19950;-71
2023/06/25 09:05:14;;;;;;;;;;;;;;;-144.99;66.50;52016.00;5080846;28;20313;-71
2023/06/25 09:07:45;;;;;;;;;;;;;;;-144.99;66.09;52026.19;5075653;28;19940;-71
2023/06/25 09:10:11;;;;;;;;;;;;;;;-144.99;66.56;52020.09;5065477;28;19955;-71
2023/06/25 09:12:38;;;;;;;;;;;;;;;-144.99;65.52;52044.53;5073066;28;19946;-72
2023/06/25 09:15:06;;;;;;;;;;;;;;;-144.99;67.55;52060.84;5078065;28;19939;-71
2023/06/25 09:17:33;;;;;;;;;;;;;;;-144.99;66.36;52026.19;5075274;28;19943;-71
2023/06/25 09:20:03;;;;;;;;;;;;;;;-144.99;66.27;52040.47;5071981;28;19963;-71
2023/06/25 09:22:30;;;;;;;;;;;;;;;-144.99;65.89;52032.31;5068983;28;19941;-72
2023/06/25 09:24:58;;;;;;;;;;;;;;;-144.99;65.47;52030.28;5071790;28;19935;-71
2023/06/25 09:27:24;;;;;;;;;;;;;;;-144.99;65.31;52024.16;5074528;28;19938;-71
2023/06/25 09:29:51;;;;;;;;;;;;;;;-144.99;65.05;52001.75;5072000;28;19963;-72
2023/06/25 09:32:18;;;;;;;;;;;;;;;-144.99;65.65;52016.00;5071357;28;19949;-71
2023/06/25 09:34:46;;;;;;;;;;;;;;;-144.99;64.64;51999.69;5073873;28;20004;-71
2023/06/25 09:37:13;;;;;;;;;;;;;;;-144.99;64.90;51995.63;5070869;28;19969;-71
2023/06/25 09:39:40;;;;;;;;;;;;;;;-144.99;65.07;51991.56;5070028;28;19956;-71
2023/06/25 09:42:09;;;;;;;;;;;;;;;-144.99;64.90;51958.94;5071970;28;19942;-71
2023/06/25 09:44:37;;;;;;;;;;;;;;;-144.99;64.57;51963.03;5068984;28;19945;-71
2023/06/25 09:47:05;;;;;;;;;;;;;;;-144.99;63.76;51938.56;5074513;28;20416;-71
2023/06/25 09:49:33;;;;;;;;;;;;;;;-144.99;63.02;51952.81;5071018;28;19964;-71
2023/06/25 09:52:00;;;;;;;;;;;;;;;-144.99;62.63;51936.53;5074674;28;19942;-71
2023/06/25 09:54:28;;;;;;;;;;;;;;;-144.99;62.17;51989.50;5073622;28;19940;-72
2023/06/25 09:56:56;;;;;;;;;;;;;;;-144.99;62.15;51981.38;5072811;28;19947;-71
2023/06/25 09:59:24;;;;;;;;;;;;;;;-144.99;62.08;51958.94;5066273;28;19961;-71
2023/06/25 10:01:52;;;;;;;;;;;;;;;-144.99;61.77;51950.78;5068857;28;19946;-71
2023/06/25 10:04:18;;;;;;;;;;;;;;;-144.99;62.46;52024.16;5072030;28;19957;-71
2023/06/25 10:06:46;;;;;;;;;;;;;;;-144.99;63.48;52028.22;5067427;28;19949;-71
2023/06/25 10:09:13;;;;;;;;;;;;;;;-144.99;62.36;51946.72;5073668;28;19935;-70
2023/06/25 10:11:49;;;;;;;;;;;;;;;-144.99;61.81;51926.34;5073455;28;20418;-71
2023/06/25 10:14:16;;;;;;;;;;;;;;;-144.99;61.32;51938.56;5077063;28;19941;-71
2023/06/25 10:16:52;;;;;;;;;;;;;;;-144.99;60.93;51905.97;5076348;28;19942;-71
2023/06/25 10:19:20;;;;;;;;;;;;;;;-144.99;61.61;51991.56;5072639;28;19949;-72
2023/06/25 10:21:47;;;;;;;;;;;;;;;-144.99;61.91;51946.72;5075237;28;20343;-72
2023/06/25 10:24:13;;;;;;;;;;;;;;;-144.99;61.95;51948.75;5067677;28;20304;-72
2023/06/25 10:26:40;;;;;;;;;;;;;;;-144.99;61.46;51932.44;5073844;28;19946;-71
2023/06/25 10:29:07;;;;;;;;;;;;;;;-144.99;61.92;51954.88;5068641;28;20464;-72
2023/06/25 10:31:38;;;;;;;;;;;;;;;-144.99;61.72;51940.59;5075139;28;19960;-72
2023/06/25 10:34:07;;;;;;;;;;;;;;;-144.99;60.79;51934.50;5068057;28;19980;-72
2023/06/25 10:36:33;;;;;;;;;;;;;;;-144.99;60.27;51881.50;5066220;28;19945;-72
2023/06/25 10:39:00;;;;;;;;;;;;;;;-144.99;60.16;51889.66;5070827;28;19947;-72
2023/06/25 10:41:28;;;;;;;;;;;;;;;-144.99;60.82;51967.09;5067593;28;19947;-73
2023/06/25 10:43:55;;;;;;;;;;;;;;;-144.99;61.83;51924.28;5067272;28;20434;-71
2023/06/25 10:46:27;;;;;;;;;;;;;;;-144.99;61.24;51958.94;5069470;28;20364;-72
2023/06/25 10:48:54;;;;;;;;;;;;;;;-144.99;62.24;51956.91;5074496;28;19939;-72
2023/06/25 10:51:22;;;;;;;;;;;;;;;-144.99;62.30;52032.31;5070864;28;20439;-72
2023/06/25 10:53:49;;;;;;;;;;;;;;;-144.99;62.66;52018.03;5077601;28;19970;-71
2023/06/25 10:56:16;;;;;;;;;;;;;;;-144.99;62.29;52016.00;5065801;28;19939;-72
2023/06/25 10:58:44;;;;;;;;;;;;;;;-144.99;62.18;51979.31;5069646;28;19945;-72
2023/06/25 11:01:10;;;;;;;;;;;;;;;-144.99;62.42;51987.47;5071859;28;19952;-72
2023/06/25 11:03:38;;;;;;;;;;;;;;;-144.99;62.49;51985.44;5073972;28;19976;-72
2023/06/25 11:06:05;;;;;;;;;;;;;;;-144.99;61.95;52005.81;5074262;28;19942;-72
2023/06/25 11:08:33;;;;;;;;;;;;;;;-144.99;61.61;51954.88;5076081;28;19939;-72
2023/06/25 11:11:00;;;;;;;;;;;;;;;-144.99;61.65;51954.88;5068574;28;19956;-72
2023/06/25 11:13:27;;;;;;;;;;;;;;;-144.99;61.25;51975.25;5077843;28;19992;-72
2023/06/25 11:15:55;;;;;;;;;;;;;;;-144.99;61.32;51987.47;5068629;28;19948;-72
2023/06/25 11:18:22;;;;;;;;;;;;;;;-144.99;61.18;51958.94;5071208;28;19947;-72
2023/06/25 11:20:49;;;;;;;;;;;;;;;-144.99;61.08;51979.31;5065806;28;19959;-71
2023/06/25 11:23:16;;;;;;;;;;;;;;;-144.99;61.37;51901.88;5067986;28;19936;-71
2023/06/25 11:25:44;;;;;;;;;;;;;;;-144.99;61.32;51954.88;5070172;28;20255;-71
2023/06/25 11:28:13;;;;;;;;;;;;;;;-144.99;60.64;51893.72;5074962;28;19944;-72
2023/06/25 11:30:39;;;;;;;;;;;;;;;-144.99;60.43;51914.09;5075533;28;19962;-71
2023/06/25 11:33:10;;;;;;;;;;;;;;;-144.99;60.37;51901.88;5076960;28;20023;-71
2023/06/25 11:35:36;;;;;;;;;;;;;;;-144.99;59.92;51958.94;5074175;28;20334;-71
2023/06/25 11:38:03;;;;;;;;;;;;;;;-144.99;60.16;51971.16;5073569;28;19940;-71
2023/06/25 11:40:30;;;;;;;;;;;;;;;-144.99;60.45;52016.00;5069965;28;19960;-72
2023/06/25 11:42:58;;;;;;;;;;;;;;;-144.99;60.84;51938.56;5072985;28;19939;-73
2023/06/25 11:45:25;;;;;;;;;;;;;;;-144.99;60.58;51918.19;5090999;22;19979;-71
2023/06/25 11:47:53;;;;;;;;;;;;;;;-144.99;59.96;51897.81;5093874;28;20053;-69
2023/06/25 11:50:22;;;;;;;;;;;;;;;-144.99;59.20;51914.09;5093108;28;19950;-69
2023/06/25 11:52:49;;;;;;;;;;;;;;;-144.99;58.55;51844.81;5105166;28;19984;-71
2023/06/25 11:55:16;;;;;;;;;;;;;;;-144.99;58.93;51836.66;5100569;28;19943;-70
2023/06/25 11:57:43;;;;;;;;;;;;;;;-144.99;58.44;51852.97;5105392;28;20072;-69
2023/06/25 12:00:12;;;;;;;;;;;;;;;-144.99;57.98;51836.66;5105729;28;20406;-70
2023/06/25 12:02:39;;;;;;;;;;;;;;;-144.99;58.08;51816.28;5097254;28;19972;-68
2023/06/25 12:05:06;;;;;;;;;;;;;;;-144.99;57.64;51824.44;5100708;28;19950;-68
2023/06/25 12:07:33;;;;;;;;;;;;;;;-144.99;57.71;51879.47;5080221;28;19944;-71
2023/06/25 12:09:59;;;;;;;;;;;;;;;-144.99;57.67;51885.56;5102254;28;19961;-69
2023/06/25 12:12:26;;;;;;;;;;;;;;;-144.99;58.16;51889.66;5101235;28;20009;-69
2023/06/25 12:14:53;;;;;;;;;;;;;;;-144.99;58.37;51934.50;5100914;28;20016;-69
2023/06/25 12:17:21;;;;;;;;;;;;;;;-144.99;58.83;51893.72;5101057;28;19958;-69
2023/06/25 12:19:48;;;;;;;;;;;;;;;-144.99;58.75;51926.34;5098287;28;19983;-69
2023/06/25 12:22:15;;;;;;;;;;;;;;;-144.99;58.88;51952.81;5098516;28;19943;-69
2023/06/25 12:24:42;;;;;;;;;;;;;;;-144.99;59.29;51926.34;5091607;28;19938;-69